createdAt,value
2022-08-05T00:00:17.321Z,3.38
2022-08-05T00:02:51.724Z,3.28
2022-08-05T00:06:02.817Z,3.05
2022-08-05T00:08:32.922Z,3.63
2022-08-05T00:11:00.983Z,3.40
2022-08-05T00:13:39.445Z,3.30
2022-08-05T00:16:12.186Z,4.10
2022-08-05T00:18:40.886Z,4.38
2022-08-05T00:21:10.149Z,4.20
2022-08-05T00:23:46.165Z,3.93
2022-08-05T00:26:20.878Z,3.75
2022-08-05T00:28:49.577Z,3.88
2022-08-05T00:31:53.827Z,4.25
2022-08-05T00:34:54.890Z,4.38
2022-08-05T00:37:11.208Z,4.00
2022-08-05T00:39:57.293Z,3.95
2022-08-05T00:42:32.091Z,3.75
2022-08-05T00:45:00.351Z,3.90
2022-08-05T00:47:31.642Z,3.78
2022-08-05T00:50:15.378Z,3.43
2022-08-05T00:52:45.535Z,3.50
2022-08-05T00:55:14.959Z,4.13
2022-08-05T00:57:57.980Z,3.35
2022-08-05T01:00:28.173Z,3.50
2022-08-05T01:02:56.508Z,3.90
2022-08-05T01:05:24.801Z,3.33
2022-08-05T01:08:39.950Z,3.80
2022-08-05T01:10:53.295Z,3.50
2022-08-05T01:13:57.465Z,3.20
2022-08-05T01:16:33.123Z,3.60
2022-08-05T01:19:06.620Z,3.35
2022-08-05T01:21:50.613Z,4.10
2022-08-05T01:24:39.357Z,3.30
2022-08-05T01:27:25.549Z,3.72
2022-08-05T01:29:54.833Z,3.67
2022-08-05T01:32:23.805Z,3.70
2022-08-05T01:34:57.571Z,3.50
2022-08-05T01:37:48.399Z,3.75
2022-08-05T01:40:18.035Z,3.47
2022-08-05T01:42:46.295Z,3.47
2022-08-05T01:45:14.401Z,3.58
2022-08-05T01:47:44.495Z,3.40
2022-08-05T01:50:28.581Z,3.50
2022-08-05T01:53:00.679Z,3.60
2022-08-05T01:55:29.223Z,3.23
2022-08-05T01:58:12.657Z,3.40
2022-08-05T02:00:45.750Z,3.20
2022-08-05T02:03:44.075Z,3.50
2022-08-05T02:06:23.918Z,3.45
2022-08-05T02:08:59.344Z,3.37
2022-08-05T02:11:33.359Z,3.40
2022-08-05T02:14:04.949Z,3.55
2022-08-05T02:16:42.015Z,3.65
2022-08-05T02:19:28.202Z,3.30
2022-08-05T02:22:08.630Z,3.77
2022-08-05T02:24:38.238Z,3.80
2022-08-05T02:27:10.158Z,3.95
2022-08-05T02:29:59.798Z,3.35
2022-08-05T02:32:29.250Z,3.92
2022-08-05T02:34:59.912Z,3.47
2022-08-05T02:37:37.013Z,3.75
2022-08-05T02:40:04.638Z,3.58
2022-08-05T02:42:37.144Z,3.70
2022-08-05T02:45:04.808Z,3.70
2022-08-05T02:48:06.769Z,3.53
2022-08-05T02:50:19.862Z,3.88
2022-08-05T02:52:47.184Z,3.67
2022-08-05T02:55:14.860Z,3.30
2022-08-05T02:58:11.235Z,3.75
2022-08-05T03:00:32.946Z,3.57
2022-08-05T03:03:01.677Z,3.90
2022-08-05T03:06:56.886Z,3.90
2022-08-05T03:08:16.675Z,4.03
2022-08-05T03:11:47.620Z,4.40
2022-08-05T03:13:51.605Z,4.03
2022-08-05T03:16:29.343Z,4.05
2022-08-05T03:19:12.588Z,4.10
2022-08-05T03:21:48.771Z,3.80
2022-08-05T03:24:29.404Z,4.15
2022-08-05T03:26:59.469Z,4.00
2022-08-05T03:29:45.939Z,4.15
2022-08-05T03:32:15.538Z,4.00
2022-08-05T03:34:47.238Z,3.70
2022-08-05T03:37:19.894Z,3.88
2022-08-05T03:40:01.820Z,3.97
2022-08-05T03:42:32.086Z,4.20
2022-08-05T03:45:01.877Z,4.40
2022-08-05T03:47:47.892Z,4.43
2022-08-05T03:50:17.072Z,4.35
2022-08-05T03:55:00.221Z,4.43
2022-08-05T03:56:27.883Z,4.43
2022-08-05T03:59:01.319Z,4.55
2022-08-05T04:01:32.236Z,4.75
2022-08-05T04:04:09.211Z,4.95
2022-08-05T04:06:37.988Z,4.27
2022-08-05T04:09:06.416Z,4.22
2022-08-05T04:11:50.491Z,4.95
2022-08-05T04:14:29.878Z,4.88
2022-08-05T04:17:00.104Z,5.28
2022-08-05T04:19:30.634Z,4.40
2022-08-05T04:22:08.529Z,4.63
2022-08-05T04:24:44.479Z,4.10
2022-08-05T04:27:13.471Z,4.68
2022-08-05T04:29:41.523Z,4.25
2022-08-05T04:32:09.893Z,4.87
2022-08-05T04:34:40.913Z,4.40
2022-08-05T04:37:10.476Z,4.60
2022-08-05T04:39:39.141Z,4.47
2022-08-05T04:42:07.954Z,4.57
2022-08-05T04:44:36.692Z,4.50
2022-08-05T04:47:09.943Z,4.45
2022-08-05T04:50:01.678Z,4.63
2022-08-05T04:52:27.672Z,4.88
2022-08-05T04:54:57.159Z,4.55
2022-08-05T04:57:28.543Z,4.23
2022-08-05T04:59:58.572Z,4.80
2022-08-05T05:02:37.433Z,4.00
2022-08-05T05:05:26.375Z,4.25
2022-08-05T05:08:14.140Z,4.55
2022-08-05T05:10:55.771Z,4.57
2022-08-05T05:13:23.398Z,4.28
2022-08-05T05:15:59.474Z,4.32
2022-08-05T05:18:34.237Z,4.25
2022-08-05T05:21:03.157Z,3.97
2022-08-05T05:24:02.310Z,4.40
2022-08-05T05:26:18.306Z,4.10
2022-08-05T05:28:45.691Z,4.50
2022-08-05T05:31:13.197Z,4.38
2022-08-05T05:33:59.783Z,4.43
2022-08-05T05:36:28.733Z,4.73
2022-08-05T05:38:58.014Z,4.38
2022-08-05T05:41:26.340Z,4.53
2022-08-05T05:44:35.608Z,4.10
2022-08-05T05:46:56.369Z,4.70
2022-08-05T05:49:25.570Z,4.53
2022-08-05T05:51:53.759Z,4.55
2022-08-05T05:54:22.201Z,4.68
2022-08-05T05:57:13.621Z,4.25
2022-08-05T05:59:47.159Z,4.03
2022-08-05T06:02:16.215Z,4.20
2022-08-05T06:04:44.649Z,4.15
2022-08-05T06:07:16.677Z,4.40
2022-08-05T06:10:03.434Z,4.50
2022-08-05T06:12:35.297Z,4.60
2022-08-05T06:15:13.535Z,4.03
2022-08-05T06:17:53.075Z,4.43
2022-08-05T06:20:21.924Z,4.72
2022-08-05T06:22:49.347Z,4.22
2022-08-05T06:25:59.028Z,4.97
2022-08-05T06:28:10.685Z,4.60
2022-08-05T06:30:40.611Z,4.50
2022-08-05T06:33:10.076Z,4.10
2022-08-05T06:36:07.749Z,4.45
2022-08-05T06:38:35.682Z,4.10
2022-08-05T06:41:05.292Z,4.70
2022-08-05T06:43:57.507Z,4.80
2022-08-05T06:46:29.678Z,5.05
2022-08-05T06:48:59.751Z,4.95
2022-08-05T06:51:30.790Z,4.95
2022-08-05T06:53:59.535Z,4.47
2022-08-05T06:56:28.399Z,4.10
2022-08-05T06:58:55.775Z,4.55
2022-08-05T07:01:23.603Z,4.57
2022-08-05T07:03:55.310Z,4.60
2022-08-05T07:06:23.716Z,4.67
2022-08-05T07:08:52.059Z,4.20
2022-08-05T07:11:25.520Z,3.95
2022-08-05T07:14:20.143Z,3.70
2022-08-05T07:18:08.130Z,3.90
2022-08-05T07:22:28.116Z,3.92
2022-08-05T07:25:21.935Z,3.65
2022-08-05T07:27:57.771Z,3.45
2022-08-05T07:30:38.995Z,4.15
2022-08-05T07:33:09.486Z,3.67
2022-08-05T07:36:04.849Z,3.60
2022-08-05T07:38:34.149Z,4.15
2022-08-05T07:42:07.128Z,3.63
2022-08-05T07:44:00.293Z,3.53
2022-08-05T07:46:29.308Z,3.80
2022-08-05T07:49:02.777Z,3.83
2022-08-05T07:51:37.359Z,4.00
2022-08-05T07:54:08.397Z,3.90
2022-08-05T07:57:00.793Z,3.67
2022-08-05T07:59:39.047Z,3.90
2022-08-05T08:02:15.750Z,3.70
2022-08-05T08:04:48.573Z,3.65
2022-08-05T08:07:18.097Z,3.63
2022-08-05T08:09:46.313Z,3.35
2022-08-05T08:12:30.587Z,3.40
2022-08-05T08:15:03.697Z,3.50
2022-08-05T08:17:32.801Z,3.65
2022-08-05T08:20:21.546Z,3.45
2022-08-05T08:22:54.286Z,3.47
2022-08-05T08:25:27.205Z,3.43
2022-08-05T08:28:18.758Z,3.67
2022-08-05T08:30:58.861Z,3.42
2022-08-05T08:33:27.292Z,3.30
2022-08-05T08:36:18.416Z,3.40
2022-08-05T08:38:43.675Z,3.50
2022-08-05T08:41:20.652Z,3.42
2022-08-05T08:45:20.398Z,3.22
2022-08-05T08:46:41.352Z,3.20
2022-08-05T08:50:07.631Z,3.08
2022-08-05T08:52:03.359Z,3.27
2022-08-05T08:54:36.568Z,3.03
2022-08-05T08:57:06.177Z,3.50
2022-08-05T08:59:39.070Z,3.10
2022-08-05T09:02:09.896Z,2.70
2022-08-05T09:04:58.154Z,2.70
2022-08-05T09:07:29.068Z,2.90
2022-08-05T09:09:57.052Z,2.88
2022-08-05T09:12:27.413Z,2.60
2022-08-05T09:14:59.420Z,2.60
2022-08-05T09:17:40.516Z,3.00
2022-08-05T09:20:09.880Z,2.75
2022-08-05T09:23:07.899Z,2.90
2022-08-05T09:26:01.958Z,2.78
2022-08-05T09:28:32.205Z,2.80
2022-08-05T09:31:43.396Z,2.90
2022-08-05T09:34:01.653Z,2.80
2022-08-05T09:36:54.323Z,2.58
2022-08-05T09:39:41.426Z,3.00
2022-08-05T09:42:17.510Z,3.00
2022-08-05T09:44:52.361Z,2.80
2022-08-05T09:47:48.490Z,2.70
2022-08-05T09:50:18.132Z,2.97
2022-08-05T09:53:02.424Z,2.55
2022-08-05T09:55:59.117Z,2.30
2022-08-05T09:58:23.326Z,2.30
2022-08-05T10:01:01.039Z,3.00
2022-08-05T10:03:56.475Z,2.53
2022-08-05T10:06:16.128Z,2.67
2022-08-05T10:08:43.488Z,2.40
2022-08-05T10:11:21.933Z,2.40
2022-08-05T10:13:54.676Z,2.42
2022-08-05T10:16:52.366Z,2.50
2022-08-05T10:19:23.693Z,2.70
2022-08-05T10:21:59.558Z,2.40
2022-08-05T10:24:27.373Z,2.70
2022-08-05T10:27:00.472Z,2.75
2022-08-05T10:30:07.143Z,2.50
2022-08-05T10:33:01.444Z,2.70
2022-08-05T10:35:07.432Z,2.20
2022-08-05T10:37:41.313Z,2.57
2022-08-05T10:40:39.153Z,2.53
2022-08-05T10:43:13.949Z,2.70
2022-08-05T10:45:42.062Z,2.63
2022-08-05T10:48:35.095Z,2.50
2022-08-05T10:51:22.101Z,2.47
2022-08-05T10:53:58.355Z,2.30
2022-08-05T10:56:30.157Z,2.65
2022-08-05T10:59:07.137Z,2.83
2022-08-05T11:01:54.947Z,2.33
2022-08-05T11:04:32.003Z,2.53
2022-08-05T11:07:06.563Z,2.65
2022-08-05T11:09:47.160Z,2.55
2022-08-05T11:12:27.150Z,2.70
2022-08-05T11:15:19.005Z,2.67
2022-08-05T11:17:59.417Z,2.60
2022-08-05T11:20:47.653Z,2.53
2022-08-05T11:24:02.847Z,2.58
2022-08-05T11:26:33.936Z,2.60
2022-08-05T11:29:12.027Z,2.67
2022-08-05T11:31:56.648Z,2.90
2022-08-05T11:34:37.804Z,2.80
2022-08-05T11:37:06.184Z,2.70
2022-08-05T11:40:00.671Z,2.55
2022-08-05T11:42:32.542Z,2.95
2022-08-05T11:45:06.164Z,2.60
2022-08-05T11:47:54.597Z,2.90
2022-08-05T11:50:22.946Z,2.65
2022-08-05T11:52:53.173Z,2.70
2022-08-05T11:55:32.312Z,2.70
2022-08-05T11:58:09.968Z,2.70
2022-08-05T12:00:41.289Z,2.50
2022-08-05T12:03:29.349Z,2.50
2022-08-05T12:06:02.851Z,2.65
2022-08-05T12:08:31.732Z,2.75
2022-08-05T12:11:04.128Z,2.87
2022-08-05T12:13:49.263Z,3.08
2022-08-05T12:16:27.149Z,2.83
2022-08-05T12:18:56.211Z,2.72
2022-08-05T12:21:24.702Z,2.92
2022-08-05T12:24:05.048Z,2.70
2022-08-05T12:26:36.257Z,2.78
2022-08-05T12:29:05.530Z,2.60
2022-08-05T12:31:43.676Z,2.80
2022-08-05T12:34:38.673Z,2.80
2022-08-05T12:37:17.113Z,2.83
2022-08-05T12:39:48.502Z,2.70
2022-08-05T12:42:19.801Z,2.80
2022-08-05T12:44:47.850Z,3.00
2022-08-05T12:47:28.645Z,2.72
2022-08-05T12:50:04.339Z,2.90
2022-08-05T12:52:39.081Z,2.60
2022-08-05T12:55:26.484Z,3.00
2022-08-05T12:58:38.693Z,2.70
2022-08-05T13:02:00.762Z,2.92
2022-08-05T13:03:33.025Z,2.87
2022-08-05T13:06:01.652Z,2.70
2022-08-05T13:08:32.938Z,2.80
2022-08-05T13:11:02.312Z,2.47
2022-08-05T13:14:06.560Z,2.85
2022-08-05T13:16:17.724Z,2.83
2022-08-05T13:18:55.297Z,2.72
2022-08-05T13:21:28.411Z,2.63
2022-08-05T13:24:08.873Z,2.63
2022-08-05T13:26:36.578Z,2.58
2022-08-05T13:29:05.124Z,2.70
2022-08-05T13:32:02.850Z,2.83
2022-08-05T13:34:25.832Z,2.50
2022-08-05T13:36:54.143Z,2.58
2022-08-05T13:40:13.140Z,3.15
2022-08-05T13:42:14.680Z,2.70
2022-08-05T13:44:46.269Z,2.67
2022-08-05T13:47:34.737Z,2.72
2022-08-05T13:50:04.416Z,2.83
2022-08-05T13:52:35.518Z,2.70
2022-08-05T13:55:07.463Z,3.00
2022-08-05T13:57:50.900Z,2.83
2022-08-05T14:00:27.432Z,2.80
2022-08-05T14:02:56.966Z,2.47
2022-08-05T14:05:48.084Z,2.90
2022-08-05T14:08:20.068Z,2.47
2022-08-05T14:10:48.993Z,2.80
2022-08-05T14:13:16.444Z,2.90
2022-08-05T14:16:05.835Z,2.60
2022-08-05T14:18:31.255Z,2.72
2022-08-05T14:21:00.126Z,2.90
2022-08-05T14:23:33.660Z,2.70
2022-08-05T14:26:04.955Z,2.90
2022-08-05T14:28:33.783Z,3.05
2022-08-05T14:31:02.127Z,2.80
2022-08-05T14:33:56.747Z,2.83
2022-08-05T14:36:21.531Z,2.80
2022-08-05T14:38:50.276Z,2.90
2022-08-05T14:41:18.688Z,3.00
2022-08-05T14:44:01.473Z,2.83
2022-08-05T14:46:39.232Z,2.60
2022-08-05T14:49:10.870Z,2.80
2022-08-05T14:51:42.836Z,2.70
2022-08-05T14:54:27.746Z,3.00
2022-08-05T14:56:57.972Z,2.72
2022-08-05T14:59:29.525Z,3.00
2022-08-05T15:02:15.769Z,2.63
2022-08-05T15:04:45.004Z,2.88
2022-08-05T15:08:06.315Z,2.63
2022-08-05T15:10:03.269Z,2.50
2022-08-05T15:12:41.057Z,2.60
2022-08-05T15:15:18.269Z,2.90
2022-08-05T15:18:05.956Z,2.75
2022-08-05T15:20:33.417Z,2.70
2022-08-05T15:23:07.850Z,2.88
2022-08-05T15:25:41.077Z,3.00
2022-08-05T15:28:19.163Z,2.90
2022-08-05T15:30:53.017Z,2.72
2022-08-05T15:33:56.678Z,2.80
2022-08-05T15:36:16.643Z,2.80
2022-08-05T15:38:46.416Z,2.60
2022-08-05T15:41:21.833Z,3.08
2022-08-05T15:43:51.501Z,2.70
2022-08-05T15:46:24.370Z,2.80
2022-08-05T15:48:58.018Z,2.72
2022-08-05T15:52:13.397Z,2.67
2022-08-05T15:54:16.741Z,2.60
2022-08-05T15:56:44.103Z,2.90
2022-08-05T15:59:21.750Z,2.60
2022-08-05T16:01:52.648Z,2.70
2022-08-05T16:04:25.551Z,2.60
2022-08-05T16:06:55.563Z,2.88
2022-08-05T16:09:24.093Z,2.85
2022-08-05T16:11:53.757Z,2.80
2022-08-05T16:14:22.574Z,3.25
2022-08-05T16:16:50.092Z,2.80
2022-08-05T16:19:25.887Z,2.95
2022-08-05T16:22:05.402Z,2.60
2022-08-05T16:24:41.626Z,2.80
2022-08-05T16:27:18.941Z,2.72
2022-08-05T16:29:50.880Z,2.70
2022-08-05T16:32:28.544Z,2.72
2022-08-05T16:34:58.968Z,2.50
2022-08-05T16:38:03.360Z,2.88
2022-08-05T16:40:28.650Z,2.80
2022-08-05T16:42:57.251Z,3.00
2022-08-05T16:46:07.098Z,2.70
2022-08-05T16:48:12.144Z,2.80
2022-08-05T16:50:54.170Z,3.00
2022-08-05T16:53:32.269Z,2.90
2022-08-05T16:56:10.268Z,2.93
2022-08-05T16:58:39.441Z,2.70
2022-08-05T17:01:07.106Z,2.78
2022-08-05T17:03:38.949Z,2.83
2022-08-05T17:06:06.663Z,2.92
2022-08-05T17:08:51.747Z,3.03
2022-08-05T17:11:23.903Z,2.70
2022-08-05T17:14:05.687Z,3.13
2022-08-05T17:16:36.139Z,2.85
2022-08-05T17:19:07.437Z,2.80
2022-08-05T17:21:37.637Z,2.80
2022-08-05T17:24:18.685Z,3.10
2022-08-05T17:26:57.541Z,2.95
2022-08-05T17:29:33.973Z,2.80
2022-08-05T17:32:16.574Z,2.70
2022-08-05T17:34:47.918Z,2.77
2022-08-05T17:37:40.688Z,3.30
2022-08-05T17:40:10.729Z,3.20
2022-08-05T17:42:42.971Z,3.10
2022-08-05T17:45:22.627Z,3.33
2022-08-05T17:47:54.521Z,3.20
2022-08-05T17:50:28.638Z,4.32
2022-08-05T17:52:59.283Z,3.40
2022-08-05T17:55:38.468Z,3.28
2022-08-05T17:58:13.219Z,3.10
2022-08-05T18:00:45.315Z,3.50
2022-08-05T18:03:33.211Z,3.08
2022-08-05T18:06:11.873Z,3.55
2022-08-05T18:08:44.470Z,3.40
2022-08-05T18:11:24.440Z,3.90
2022-08-05T18:14:03.597Z,3.70
2022-08-05T18:16:32.619Z,3.50
2022-08-05T18:18:59.872Z,3.80
2022-08-05T18:21:28.175Z,3.35
2022-08-05T18:24:14.947Z,3.72
2022-08-05T18:26:43.877Z,3.77
2022-08-05T18:29:11.363Z,3.95
2022-08-05T18:31:42.954Z,3.40
2022-08-05T18:34:12.808Z,3.80
2022-08-05T18:36:43.662Z,4.20
2022-08-05T18:39:42.264Z,3.90
2022-08-05T18:42:06.336Z,3.80
2022-08-05T18:44:48.983Z,3.92
2022-08-05T18:47:22.845Z,4.32
2022-08-05T18:50:15.772Z,3.83
2022-08-05T18:52:50.830Z,3.80
2022-08-05T18:55:19.538Z,4.20
2022-08-05T18:57:52.718Z,3.90
2022-08-05T19:00:25.013Z,4.03
2022-08-05T19:02:57.451Z,4.03
2022-08-05T19:06:12.019Z,4.00
2022-08-05T19:08:13.694Z,4.22
2022-08-05T19:10:42.913Z,4.55
2022-08-05T19:13:15.602Z,3.72
2022-08-05T19:15:59.020Z,4.82
2022-08-05T19:18:29.017Z,4.57
2022-08-05T19:20:56.698Z,5.00
2022-08-05T19:24:07.615Z,5.07
2022-08-05T19:26:12.250Z,4.95
2022-08-05T19:28:43.317Z,5.00
2022-08-05T19:31:13.693Z,5.10
2022-08-05T19:33:55.733Z,5.15
2022-08-05T19:36:25.756Z,4.72
2022-08-05T19:39:00.901Z,4.65
2022-08-05T19:41:58.293Z,4.60
2022-08-05T19:44:19.701Z,4.80
2022-08-05T19:46:47.233Z,4.70
2022-08-05T19:49:18.113Z,4.70
2022-08-05T19:52:05.861Z,4.47
2022-08-05T19:54:34.565Z,4.28
2022-08-05T19:57:08.418Z,5.00
2022-08-05T19:59:55.107Z,4.90
2022-08-05T20:02:26.009Z,5.60
2022-08-05T20:04:55.006Z,5.20
2022-08-05T20:07:46.854Z,5.57
2022-08-05T20:10:13.633Z,5.17
2022-08-05T20:12:47.634Z,4.95
2022-08-05T20:15:48.876Z,6.07
2022-08-05T20:18:10.267Z,5.18
2022-08-05T20:20:55.986Z,5.00
2022-08-05T20:23:39.269Z,5.23
2022-08-05T20:26:16.603Z,4.88
2022-08-05T20:28:46.240Z,5.57
2022-08-05T20:31:16.580Z,4.70
2022-08-05T20:33:44.984Z,4.78
2022-08-05T20:36:14.252Z,5.20
2022-08-05T20:38:54.265Z,4.70
2022-08-05T20:41:43.215Z,4.25
2022-08-05T20:44:28.920Z,4.30
2022-08-05T20:46:58.913Z,4.18
2022-08-05T20:49:26.643Z,4.30
2022-08-05T20:51:54.726Z,3.97
2022-08-05T20:54:25.986Z,4.40
2022-08-05T20:57:14.266Z,4.97
2022-08-05T21:00:10.219Z,4.88
2022-08-05T21:02:29.611Z,4.70
2022-08-05T21:04:57.177Z,4.47
2022-08-05T21:07:24.739Z,4.72
2022-08-05T21:10:13.753Z,4.90
2022-08-05T21:12:41.217Z,5.05
2022-08-05T21:15:26.120Z,5.00
2022-08-05T21:18:01.307Z,4.90
2022-08-05T21:20:33.036Z,4.90
2022-08-05T21:23:01.517Z,4.72
2022-08-05T21:25:33.949Z,4.75
2022-08-05T21:28:02.977Z,5.00
2022-08-05T21:30:31.570Z,5.28
2022-08-05T21:32:59.904Z,5.60
2022-08-05T21:35:55.343Z,5.07
2022-08-05T21:38:17.823Z,4.97
2022-08-05T21:40:45.266Z,4.70
2022-08-05T21:43:24.315Z,4.13
2022-08-05T21:45:57.803Z,4.22
2022-08-05T21:48:28.531Z,4.35
2022-08-05T21:50:57.255Z,4.50
2022-08-05T21:53:27.365Z,4.47
2022-08-05T21:56:06.030Z,4.28
2022-08-05T21:58:48.227Z,4.53
2022-08-05T22:01:26.187Z,4.72
2022-08-05T22:03:53.954Z,4.05
2022-08-05T22:06:23.095Z,4.13
2022-08-05T22:09:13.971Z,4.07
2022-08-05T22:11:43.308Z,4.28
2022-08-05T22:14:33.698Z,4.18
2022-08-05T22:17:05.097Z,4.18
2022-08-05T22:20:00.080Z,3.87
2022-08-05T22:22:27.769Z,4.07
2022-08-05T22:25:21.071Z,4.32
2022-08-05T22:28:08.359Z,4.75
2022-08-05T22:30:55.931Z,4.30
2022-08-05T22:33:55.622Z,4.07
2022-08-05T22:36:14.205Z,4.40
2022-08-05T22:38:48.712Z,4.18
2022-08-05T22:42:04.713Z,4.18
2022-08-05T22:44:08.145Z,4.10
2022-08-05T22:46:39.790Z,4.20
2022-08-05T22:49:12.432Z,4.88
2022-08-05T22:52:04.775Z,4.07
2022-08-05T22:54:36.351Z,3.85
2022-08-05T22:57:05.021Z,4.25
2022-08-05T22:59:45.161Z,4.23
2022-08-05T23:02:17.448Z,4.63
2022-08-05T23:04:51.941Z,4.68
2022-08-05T23:07:22.270Z,4.80
2022-08-05T23:09:57.666Z,4.40
2022-08-05T23:12:33.298Z,4.60
2022-08-05T23:15:09.132Z,4.70
2022-08-05T23:17:59.583Z,4.68
2022-08-05T23:20:24.566Z,4.35
2022-08-05T23:22:55.879Z,4.57
2022-08-05T23:25:53.155Z,4.77
2022-08-05T23:28:11.933Z,4.20
2022-08-05T23:30:43.913Z,4.68
2022-08-05T23:33:22.261Z,4.18
2022-08-05T23:35:55.803Z,4.30
2022-08-05T23:38:24.607Z,4.60
2022-08-05T23:40:52.576Z,4.70
2022-08-05T23:43:25.799Z,4.40
2022-08-05T23:46:20.146Z,4.50
2022-08-05T23:49:00.999Z,4.57
2022-08-05T23:51:53.567Z,3.93
2022-08-05T23:54:36.526Z,4.60
2022-08-05T23:57:06.602Z,4.63
